createdAt,value
2023-05-10T00:01:48.810Z,19.03
2023-05-10T00:04:16.169Z,18.98
2023-05-10T00:06:43.262Z,18.92
2023-05-10T00:09:11.477Z,18.92
2023-05-10T00:11:38.646Z,18.94
2023-05-10T00:14:05.959Z,18.92
2023-05-10T00:16:33.216Z,18.91
2023-05-10T00:19:00.438Z,18.91
2023-05-10T00:21:29.321Z,18.88
2023-05-10T00:23:56.378Z,18.88
2023-05-10T00:26:25.763Z,18.80
2023-05-10T00:28:55.792Z,18.74
2023-05-10T00:31:24.425Z,18.74
2023-05-10T00:34:10.532Z,18.73
2023-05-10T00:36:37.817Z,18.69
2023-05-10T00:39:04.957Z,18.63
2023-05-10T00:41:34.676Z,18.58
2023-05-10T00:44:03.227Z,18.57
2023-05-10T00:46:30.805Z,18.49
2023-05-10T00:49:02.520Z,18.50
2023-05-10T00:51:30.594Z,18.50
2023-05-10T00:53:57.992Z,18.48
2023-05-10T00:56:27.951Z,18.40
2023-05-10T00:58:58.560Z,18.41
2023-05-10T01:01:26.624Z,18.47
2023-05-10T01:03:54.393Z,18.50
2023-05-10T01:06:22.605Z,18.41
2023-05-10T01:08:49.758Z,18.32
2023-05-10T01:11:17.050Z,18.34
2023-05-10T01:13:48.941Z,18.35
2023-05-10T01:16:16.453Z,18.37
2023-05-10T01:18:45.757Z,18.33
2023-05-10T01:22:01.045Z,18.34
2023-05-10T01:25:04.611Z,18.24
2023-05-10T01:28:08.569Z,18.25
2023-05-10T01:31:24.618Z,18.20
2023-05-10T01:33:51.598Z,18.21
2023-05-10T01:36:34.931Z,18.26
2023-05-10T01:39:18.675Z,18.27
2023-05-10T01:42:09.242Z,18.31
2023-05-10T01:44:52.702Z,18.32
2023-05-10T01:47:34.702Z,18.33
2023-05-10T01:50:06.396Z,18.34
2023-05-10T01:52:39.951Z,18.38
2023-05-10T01:55:15.074Z,18.36
2023-05-10T01:57:47.618Z,18.29
2023-05-10T02:00:17.565Z,18.31
2023-05-10T02:02:51.126Z,18.33
2023-05-10T02:05:24.191Z,18.28
2023-05-10T02:07:53.622Z,18.25
2023-05-10T02:10:21.833Z,18.19
2023-05-10T02:12:50.533Z,18.15
2023-05-10T02:15:24.216Z,18.15
2023-05-10T02:17:55.837Z,18.16
2023-05-10T02:20:24.588Z,18.09
2023-05-10T02:22:55.602Z,18.11
2023-05-10T02:25:24.854Z,18.11
2023-05-10T02:27:56.617Z,18.12
2023-05-10T02:30:25.145Z,18.12
2023-05-10T02:32:53.483Z,18.08
2023-05-10T02:35:22.234Z,18.07
2023-05-10T02:37:49.987Z,17.98
2023-05-10T02:40:19.061Z,17.92
2023-05-10T02:42:48.868Z,17.94
2023-05-10T02:45:25.190Z,17.97
2023-05-10T02:47:52.538Z,17.93
2023-05-10T02:50:23.548Z,17.79
2023-05-10T02:52:53.638Z,17.72
2023-05-10T02:55:27.265Z,17.73
2023-05-10T02:58:00.993Z,17.66
2023-05-10T03:00:30.833Z,17.62
2023-05-10T03:02:59.752Z,17.61
2023-05-10T03:05:28.320Z,17.63
2023-05-10T03:07:58.975Z,17.60
2023-05-10T03:10:30.925Z,17.61
2023-05-10T03:13:27.672Z,17.61
2023-05-10T03:16:10.896Z,17.61
2023-05-10T03:18:50.623Z,17.43
2023-05-10T03:21:19.950Z,17.51
2023-05-10T03:23:58.696Z,17.43
2023-05-10T03:26:29.282Z,17.42
2023-05-10T03:29:14.024Z,17.43
2023-05-10T03:31:47.924Z,17.38
2023-05-10T03:34:18.652Z,17.42
2023-05-10T03:36:45.946Z,17.43
2023-05-10T03:39:13.301Z,17.40
2023-05-10T03:41:44.229Z,17.40
2023-05-10T03:44:11.725Z,17.35
2023-05-10T03:46:47.878Z,17.31
2023-05-10T03:49:15.085Z,17.21
2023-05-10T03:51:43.104Z,17.20
2023-05-10T03:54:13.650Z,17.07
2023-05-10T03:56:42.090Z,17.03
2023-05-10T03:59:10.127Z,16.93
2023-05-10T04:01:37.225Z,16.91
2023-05-10T04:04:04.677Z,16.82
2023-05-10T04:06:33.049Z,16.81
2023-05-10T04:09:02.068Z,16.79
2023-05-10T04:11:29.177Z,16.78
2023-05-10T04:13:58.778Z,16.64
2023-05-10T04:16:26.125Z,16.66
2023-05-10T04:18:53.369Z,16.67
2023-05-10T04:21:21.508Z,16.62
2023-05-10T04:23:55.216Z,16.58
2023-05-10T04:26:23.793Z,16.51
2023-05-10T04:28:50.902Z,16.51
2023-05-10T04:31:18.411Z,16.53
2023-05-10T04:33:48.729Z,16.51
2023-05-10T04:36:15.908Z,16.54
2023-05-10T04:38:43.795Z,16.55
2023-05-10T04:41:13.753Z,16.52
2023-05-10T04:43:42.156Z,16.46
2023-05-10T04:46:10.849Z,16.42
2023-05-10T04:48:38.280Z,16.38
2023-05-10T04:51:07.681Z,16.33
2023-05-10T04:53:35.551Z,16.25
2023-05-10T04:56:03.757Z,16.26
2023-05-10T04:58:36.019Z,16.25
2023-05-10T05:01:10.622Z,16.24
2023-05-10T05:03:38.683Z,16.23
2023-05-10T05:06:09.856Z,16.24
2023-05-10T05:08:36.958Z,16.22
2023-05-10T05:11:04.168Z,16.19
2023-05-10T05:13:32.119Z,16.24
2023-05-10T05:16:03.744Z,16.24
2023-05-10T05:18:30.831Z,16.25
2023-05-10T05:20:58.734Z,16.24
2023-05-10T05:23:25.913Z,16.19
2023-05-10T05:26:02.960Z,16.23
2023-05-10T05:28:33.859Z,16.20
2023-05-10T05:31:01.427Z,16.18
2023-05-10T05:33:28.892Z,16.15
2023-05-10T05:35:58.582Z,16.12
2023-05-10T05:38:25.782Z,16.11
2023-05-10T05:40:53.512Z,16.05
2023-05-10T05:43:21.330Z,15.97
2023-05-10T05:45:48.773Z,15.97
2023-05-10T05:48:16.138Z,15.94
2023-05-10T05:50:43.968Z,15.89
2023-05-10T05:53:11.995Z,15.94
2023-05-10T05:55:39.483Z,15.93
2023-05-10T05:58:07.494Z,15.98
2023-05-10T06:00:35.436Z,15.99
2023-05-10T06:03:03.252Z,15.99
2023-05-10T06:05:37.296Z,15.98
2023-05-10T06:08:05.107Z,15.96
2023-05-10T06:10:32.218Z,15.96
2023-05-10T06:12:59.431Z,15.95
2023-05-10T06:15:27.834Z,15.94
2023-05-10T06:17:55.152Z,15.92
2023-05-10T06:20:22.454Z,15.92
2023-05-10T06:22:50.128Z,15.94
2023-05-10T06:25:22.377Z,15.91
2023-05-10T06:27:53.495Z,15.86
2023-05-10T06:30:24.141Z,15.85
2023-05-10T06:33:02.081Z,15.83
2023-05-10T06:35:30.056Z,15.82
2023-05-10T06:37:59.384Z,15.86
2023-05-10T06:40:32.752Z,15.91
2023-05-10T06:42:59.998Z,15.91
2023-05-10T06:45:27.167Z,15.92
2023-05-10T06:51:54.999Z,15.98
2023-05-10T06:54:22.375Z,15.99
2023-05-10T06:57:15.999Z,15.99
2023-05-10T06:59:57.239Z,16.01
2023-05-10T07:02:24.512Z,16.00
2023-05-10T07:05:00.856Z,16.04
2023-05-10T07:07:30.214Z,16.04
2023-05-10T07:10:30.472Z,16.07
2023-05-10T07:13:26.283Z,16.07
2023-05-10T07:15:53.549Z,16.06
2023-05-10T07:18:23.162Z,16.06
2023-05-10T07:20:51.362Z,16.05
2023-05-10T07:23:19.032Z,16.06
2023-05-10T07:25:48.255Z,16.07
2023-05-10T07:28:17.272Z,16.05
2023-05-10T07:30:45.610Z,16.02
2023-05-10T07:33:15.332Z,16.01
2023-05-10T07:35:45.499Z,16.00
2023-05-10T07:38:17.589Z,15.99
2023-05-10T07:40:45.577Z,15.98
2023-05-10T07:43:12.765Z,15.94
2023-05-10T07:45:40.348Z,15.94
2023-05-10T07:48:09.528Z,15.95
2023-05-10T07:50:37.391Z,15.93
2023-05-10T07:53:04.655Z,15.88
2023-05-10T07:55:33.659Z,15.84
2023-05-10T07:58:04.457Z,15.84
2023-05-10T08:00:33.881Z,15.85
2023-05-10T08:03:01.661Z,15.87
2023-05-10T08:05:34.042Z,15.89
2023-05-10T08:08:06.154Z,15.95
2023-05-10T08:10:33.486Z,16.01
2023-05-10T08:13:00.772Z,16.06
2023-05-10T08:15:28.020Z,16.09
2023-05-10T08:17:55.673Z,16.14
2023-05-10T08:20:23.106Z,16.12
2023-05-10T08:22:53.668Z,16.16
2023-05-10T08:25:21.072Z,16.12
2023-05-10T08:27:49.452Z,16.11
2023-05-10T08:30:16.887Z,16.09
2023-05-10T08:32:44.152Z,16.12
2023-05-10T08:35:11.268Z,16.16
2023-05-10T08:37:39.588Z,16.08
2023-05-10T08:40:07.732Z,16.13
2023-05-10T08:42:38.977Z,16.15
2023-05-10T08:45:08.476Z,16.12
2023-05-10T08:47:39.956Z,16.13
2023-05-10T08:50:08.196Z,16.12
2023-05-10T08:52:41.326Z,16.16
2023-05-10T08:55:09.586Z,16.16
2023-05-10T08:57:42.211Z,16.13
2023-05-10T09:00:10.394Z,16.13
2023-05-10T09:02:44.556Z,16.11
2023-05-10T09:05:11.970Z,16.07
2023-05-10T09:07:39.221Z,15.97
2023-05-10T09:10:07.693Z,15.95
2023-05-10T09:12:35.053Z,15.90
2023-05-10T09:15:07.251Z,15.86
2023-05-10T09:17:35.160Z,15.86
2023-05-10T09:20:05.186Z,15.85
2023-05-10T09:22:35.699Z,15.86
2023-05-10T09:25:10.765Z,15.89
2023-05-10T09:27:42.667Z,15.89
2023-05-10T09:30:10.365Z,15.91
2023-05-10T09:32:43.155Z,15.91
2023-05-10T09:35:18.496Z,15.91
2023-05-10T09:37:54.829Z,15.97
2023-05-10T09:40:28.418Z,16.01
2023-05-10T09:43:00.165Z,16.02
2023-05-10T09:45:31.903Z,15.99
2023-05-10T09:48:01.544Z,16.00
2023-05-10T09:50:30.090Z,16.01
2023-05-10T09:53:08.920Z,16.00
2023-05-10T09:55:46.007Z,15.99
2023-05-10T09:58:15.240Z,16.01
2023-05-10T10:00:52.882Z,15.99
2023-05-10T10:03:22.416Z,15.95
2023-05-10T10:05:50.570Z,15.96
2023-05-10T10:08:18.939Z,16.00
2023-05-10T10:10:47.447Z,16.05
2023-05-10T10:13:16.139Z,16.07
2023-05-10T10:15:45.173Z,16.09
2023-05-10T10:18:16.582Z,16.07
2023-05-10T10:20:43.951Z,16.09
2023-05-10T10:23:11.598Z,16.11
2023-05-10T10:25:39.905Z,16.15
2023-05-10T10:28:49.103Z,16.20
2023-05-10T10:31:34.907Z,16.19
2023-05-10T10:34:08.263Z,16.20
2023-05-10T10:37:06.408Z,16.17
2023-05-10T10:39:34.149Z,16.25
2023-05-10T10:42:01.267Z,16.29
2023-05-10T10:44:41.651Z,16.28
2023-05-10T10:47:24.629Z,16.31
2023-05-10T10:50:06.676Z,16.36
2023-05-10T10:52:42.495Z,16.40
2023-05-10T10:55:27.554Z,16.37
2023-05-10T10:58:05.260Z,16.38
2023-05-10T11:00:37.176Z,16.39
2023-05-10T11:03:19.873Z,16.36
2023-05-10T11:05:49.170Z,16.35
2023-05-10T11:08:27.324Z,16.36
2023-05-10T11:11:00.623Z,16.34
2023-05-10T11:13:29.740Z,16.35
2023-05-10T11:15:58.412Z,16.37
2023-05-10T11:18:34.228Z,16.40
2023-05-10T11:21:07.071Z,16.38
2023-05-10T11:23:50.444Z,16.37
2023-05-10T11:26:19.142Z,16.38
2023-05-10T11:28:49.247Z,16.40
2023-05-10T11:31:18.524Z,16.43
2023-05-10T11:33:56.735Z,16.45
2023-05-10T11:36:34.888Z,16.46
2023-05-10T11:39:04.016Z,16.50
2023-05-10T11:41:32.315Z,16.50
2023-05-10T11:44:00.171Z,16.48
2023-05-10T11:46:29.509Z,16.46
2023-05-10T11:49:09.278Z,16.49
2023-05-10T11:51:46.351Z,16.48
2023-05-10T11:54:13.889Z,16.47
2023-05-10T11:56:42.221Z,16.51
2023-05-10T11:59:09.855Z,16.52
2023-05-10T12:01:37.772Z,16.55
2023-05-10T12:04:05.748Z,16.57
2023-05-10T12:06:41.792Z,16.57
2023-05-10T12:09:09.952Z,16.62
2023-05-10T12:11:44.279Z,16.68
2023-05-10T12:14:12.426Z,16.69
2023-05-10T12:16:40.078Z,16.67
2023-05-10T12:19:08.833Z,16.67
2023-05-10T12:21:58.184Z,16.65
2023-05-10T12:24:31.992Z,16.66
2023-05-10T12:27:10.752Z,16.62
2023-05-10T12:29:47.162Z,16.61
2023-05-10T12:32:16.280Z,16.60
2023-05-10T12:34:56.296Z,16.56
2023-05-10T12:37:29.387Z,16.57
2023-05-10T12:40:01.797Z,16.55
2023-05-10T12:42:28.913Z,16.56
2023-05-10T12:45:01.049Z,16.58
2023-05-10T12:47:30.803Z,16.59
2023-05-10T12:49:58.223Z,16.56
2023-05-10T12:52:27.196Z,16.59
2023-05-10T12:54:54.897Z,16.61
2023-05-10T12:57:22.862Z,16.62
2023-05-10T12:59:50.590Z,16.62
2023-05-10T13:02:22.151Z,16.63
2023-05-10T13:04:51.039Z,16.61
2023-05-10T13:07:21.701Z,16.60
2023-05-10T13:09:49.029Z,16.60
2023-05-10T13:24:12.420Z,16.59
2023-05-10T13:27:21.900Z,16.60
2023-05-10T13:30:13.184Z,16.63
2023-05-10T13:37:06.271Z,16.53
2023-05-10T13:39:48.843Z,16.47
2023-05-10T13:42:35.859Z,16.46
2023-05-10T13:49:44.188Z,16.36
2023-05-10T13:52:57.536Z,16.39
2023-05-10T13:56:32.936Z,16.36
2023-05-10T14:00:01.679Z,16.35
2023-05-10T14:07:13.119Z,16.36
2023-05-10T14:13:33.117Z,16.35
2023-05-10T14:16:21.750Z,16.36
2023-05-10T14:18:57.775Z,16.38
2023-05-10T14:21:24.931Z,16.41
2023-05-10T14:23:52.295Z,16.45
2023-05-10T14:26:19.458Z,16.48
2023-05-10T14:28:46.606Z,16.52
2023-05-10T14:31:13.869Z,16.56
2023-05-10T14:33:42.006Z,16.59
2023-05-10T14:36:09.848Z,16.60
2023-05-10T14:38:36.943Z,16.63
2023-05-10T14:41:04.169Z,16.65
2023-05-10T14:43:31.576Z,16.70
2023-05-10T14:45:59.133Z,16.73
2023-05-10T14:48:26.331Z,16.76
2023-05-10T14:50:53.720Z,16.75
2023-05-10T14:53:20.945Z,16.77
2023-05-10T14:55:48.431Z,16.81
2023-05-10T14:58:35.594Z,16.86
2023-05-10T15:01:33.801Z,16.79
2023-05-10T15:04:21.781Z,16.82
2023-05-10T15:06:51.869Z,16.86
2023-05-10T15:09:19.017Z,16.90
2023-05-10T15:11:46.299Z,16.97
2023-05-10T15:14:51.917Z,17.05
2023-05-10T15:18:43.114Z,17.10
2023-05-10T15:21:54.605Z,17.19
2023-05-10T15:25:02.535Z,17.24
2023-05-10T15:27:31.944Z,17.29
2023-05-10T15:30:00.525Z,17.34
2023-05-10T15:32:45.392Z,17.37
2023-05-10T15:35:55.287Z,17.36
2023-05-10T15:39:36.904Z,17.34
2023-05-10T15:42:49.874Z,17.36
2023-05-10T15:45:26.040Z,17.36
2023-05-10T15:52:07.330Z,17.34
2023-05-10T15:55:34.902Z,17.33
2023-05-10T15:58:17.408Z,17.32
2023-05-10T16:00:44.601Z,17.35
2023-05-10T16:03:12.017Z,17.35
2023-05-10T16:05:45.280Z,17.36
2023-05-10T16:08:40.202Z,17.37
2023-05-10T16:12:18.610Z,17.39
2023-05-10T16:15:10.071Z,17.38
2023-05-10T16:17:38.029Z,17.37
2023-05-10T16:20:07.513Z,17.36
2023-05-10T16:27:39.397Z,17.36
2023-05-10T16:30:47.607Z,17.34
2023-05-10T16:33:37.548Z,17.33
2023-05-10T16:37:03.764Z,17.29
2023-05-10T16:39:45.564Z,17.26
2023-05-10T16:42:15.356Z,17.26
2023-05-10T16:44:42.881Z,17.29
2023-05-10T16:47:19.055Z,17.29
2023-05-10T16:49:46.213Z,17.31
2023-05-10T16:52:14.040Z,17.33
2023-05-10T16:54:41.163Z,17.34
2023-05-10T16:58:11.799Z,17.35
2023-05-10T17:00:49.489Z,17.34
2023-05-10T17:03:41.044Z,17.34
2023-05-10T17:06:31.753Z,17.33
2023-05-10T17:09:02.187Z,17.34
2023-05-10T17:12:09.709Z,17.34
2023-05-10T17:15:17.360Z,17.35
2023-05-10T17:17:44.954Z,17.35
2023-05-10T17:21:06.717Z,17.37
2023-05-10T17:23:47.581Z,17.36
2023-05-10T17:26:25.527Z,17.38
2023-05-10T17:29:02.425Z,17.39
2023-05-10T17:31:49.574Z,17.42
2023-05-10T17:39:55.284Z,17.37
2023-05-10T17:42:32.738Z,17.38
2023-05-10T17:45:38.260Z,17.41
2023-05-10T17:52:20.774Z,17.39
2023-05-10T17:55:21.946Z,17.38
2023-05-10T17:58:19.970Z,17.35
2023-05-10T18:01:03.905Z,17.35
2023-05-10T18:03:36.108Z,17.33
2023-05-10T18:06:04.671Z,17.30
2023-05-10T18:08:31.948Z,17.28
2023-05-10T18:10:59.316Z,17.26
2023-05-10T18:16:45.116Z,17.18
2023-05-10T18:19:12.283Z,17.14
2023-05-10T18:21:55.581Z,17.11
2023-05-10T18:24:47.249Z,17.07
2023-05-10T18:27:14.504Z,17.06
2023-05-10T18:29:45.047Z,17.02
2023-05-10T18:32:12.122Z,16.98
2023-05-10T18:34:39.176Z,16.93
2023-05-10T18:37:28.517Z,16.91
2023-05-10T18:40:24.122Z,16.87
2023-05-10T18:49:45.690Z,16.70
2023-05-10T18:53:45.800Z,16.65
2023-05-10T18:56:13.178Z,16.62
2023-05-10T19:01:58.992Z,16.48
2023-05-10T19:04:26.612Z,16.49
2023-05-10T19:06:57.575Z,16.51
2023-05-10T19:09:27.341Z,16.50
2023-05-10T19:11:55.679Z,16.49
2023-05-10T19:14:24.984Z,16.47
2023-05-10T19:16:53.441Z,16.49
2023-05-10T19:19:21.521Z,16.49
2023-05-10T19:21:49.663Z,16.47
2023-05-10T19:24:20.473Z,16.48
2023-05-10T19:26:49.543Z,16.46
2023-05-10T19:33:25.413Z,16.41
2023-05-10T19:37:01.405Z,16.42
2023-05-10T19:41:14.594Z,16.43
2023-05-10T19:48:08.763Z,16.33
2023-05-10T19:51:57.186Z,16.32
2023-05-10T19:55:25.678Z,16.33
2023-05-10T19:58:43.528Z,16.34
2023-05-10T20:01:24.451Z,16.29
2023-05-10T20:03:52.690Z,16.23
2023-05-10T20:06:20.029Z,16.20
2023-05-10T20:08:51.825Z,16.16
2023-05-10T20:11:27.404Z,16.13
2023-05-10T20:13:56.089Z,16.12
2023-05-10T20:16:27.064Z,16.11
2023-05-10T20:18:58.896Z,16.10
2023-05-10T20:21:26.985Z,16.09
2023-05-10T20:23:54.317Z,16.09
2023-05-10T20:26:22.463Z,16.08
2023-05-10T20:28:51.980Z,16.08
2023-05-10T20:31:20.240Z,16.06
2023-05-10T20:33:48.043Z,16.06
2023-05-10T20:36:15.760Z,16.07
2023-05-10T20:38:43.721Z,16.07
2023-05-10T20:41:11.567Z,16.08
2023-05-10T20:43:39.714Z,16.09
2023-05-10T20:46:08.048Z,16.09
2023-05-10T20:48:36.810Z,16.10
2023-05-10T20:51:06.224Z,16.08
2023-05-10T20:53:34.178Z,16.09
2023-05-10T20:56:02.503Z,16.09
2023-05-10T20:58:29.596Z,16.07
2023-05-10T21:00:57.379Z,16.07
2023-05-10T21:03:24.740Z,16.05
2023-05-10T21:05:51.854Z,16.03
2023-05-10T21:08:45.877Z,16.02
2023-05-10T21:11:16.344Z,15.98
2023-05-10T21:13:43.467Z,15.98
2023-05-10T21:16:11.508Z,15.98
2023-05-10T21:18:40.246Z,15.97
2023-05-10T21:21:07.637Z,15.97
2023-05-10T21:23:35.434Z,15.98
2023-05-10T21:26:07.447Z,15.96
2023-05-10T21:28:40.019Z,15.96
2023-05-10T21:31:13.405Z,15.96
2023-05-10T21:33:45.446Z,15.95
2023-05-10T21:39:45.792Z,15.94
2023-05-10T21:43:14.888Z,15.93
2023-05-10T21:50:02.109Z,15.89
2023-05-10T21:53:22.015Z,15.88
2023-05-10T21:56:27.998Z,15.87
2023-05-10T21:59:22.537Z,15.85
2023-05-10T22:01:50.359Z,15.84
2023-05-10T22:04:20.553Z,15.84
2023-05-10T22:06:50.587Z,15.84
2023-05-10T22:09:47.925Z,15.86
2023-05-10T22:12:37.106Z,15.86
2023-05-10T22:16:00.024Z,15.85
2023-05-10T22:22:19.602Z,15.83
2023-05-10T22:25:50.064Z,15.83
2023-05-10T22:31:56.072Z,15.82
2023-05-10T22:34:55.708Z,15.81
2023-05-10T22:38:05.202Z,15.82
2023-05-10T22:41:07.679Z,15.82
2023-05-10T22:44:04.930Z,15.82
2023-05-10T22:46:33.123Z,15.83
2023-05-10T22:49:00.373Z,15.83
2023-05-10T22:51:27.989Z,15.81
2023-05-10T22:53:55.582Z,15.81
2023-05-10T22:56:22.894Z,15.81
2023-05-10T22:58:51.389Z,15.83
2023-05-10T23:01:18.726Z,15.82
2023-05-10T23:03:46.113Z,15.83
2023-05-10T23:06:30.913Z,15.81
2023-05-10T23:10:05.435Z,15.81
2023-05-10T23:13:26.218Z,15.81
2023-05-10T23:16:37.774Z,15.82
2023-05-10T23:19:21.902Z,15.81
2023-05-10T23:21:49.262Z,15.83
2023-05-10T23:24:16.374Z,15.83
2023-05-10T23:26:45.575Z,15.83
2023-05-10T23:29:12.724Z,15.83
2023-05-10T23:31:45.274Z,15.81
2023-05-10T23:34:12.800Z,15.81
2023-05-10T23:36:39.912Z,15.78
2023-05-10T23:39:08.464Z,15.76
2023-05-10T23:41:35.476Z,15.75
2023-05-10T23:44:02.667Z,15.75
2023-05-10T23:46:29.815Z,15.73
2023-05-10T23:48:56.905Z,15.70
2023-05-10T23:51:24.387Z,15.69
2023-05-10T23:53:51.387Z,15.67
2023-05-10T23:56:18.537Z,15.66
2023-05-10T23:58:46.436Z,15.65
